地図

経路データ

SID SEASON NUMBER BASIN SUBBASIN NAME ISO_TIME NATURE LAT LON WMO_WIND WMO_PRES WMO_AGENCY TRACK_TYPE DIST2LAND LANDFALL IFLAG USA_AGENCY USA_ATCF_ID USA_LAT USA_LON USA_RECORD USA_STATUS USA_WIND USA_PRES USA_SSHS USA_R34_NE USA_R34_SE USA_R34_SW USA_R34_NW USA_R50_NE USA_R50_SE USA_R50_SW USA_R50_NW USA_R64_NE USA_R64_SE USA_R64_SW USA_R64_NW USA_POCI USA_ROCI USA_RMW USA_EYE TOKYO_LAT TOKYO_LON TOKYO_GRADE TOKYO_WIND TOKYO_PRES TOKYO_R50_DIR TOKYO_R50_LONG TOKYO_R50_SHORT TOKYO_R30_DIR TOKYO_R30_LONG TOKYO_R30_SHORT TOKYO_LAND CMA_LAT CMA_LON CMA_CAT CMA_WIND CMA_PRES HKO_LAT HKO_LON HKO_CAT HKO_WIND HKO_PRES NEWDELHI_LAT NEWDELHI_LON NEWDELHI_GRADE NEWDELHI_WIND NEWDELHI_PRES NEWDELHI_CI NEWDELHI_DP NEWDELHI_POCI REUNION_LAT REUNION_LON REUNION_TYPE REUNION_WIND REUNION_PRES REUNION_TNUM REUNION_CI REUNION_RMW REUNION_R34_NE REUNION_R34_SE REUNION_R34_SW REUNION_R34_NW REUNION_R50_NE REUNION_R50_SE REUNION_R50_SW REUNION_R50_NW REUNION_R64_NE REUNION_R64_SE REUNION_R64_SW REUNION_R64_NW BOM_LAT BOM_LON BOM_TYPE BOM_WIND BOM_PRES BOM_TNUM BOM_CI BOM_RMW BOM_R34_NE BOM_R34_SE BOM_R34_SW BOM_R34_NW BOM_R50_NE BOM_R50_SE BOM_R50_SW BOM_R50_NW BOM_R64_NE BOM_R64_SE BOM_R64_SW BOM_R64_NW BOM_ROCI BOM_POCI BOM_EYE BOM_POS_METHOD BOM_PRES_METHOD NADI_LAT NADI_LON NADI_CAT NADI_WIND NADI_PRES WELLINGTON_LAT WELLINGTON_LON WELLINGTON_WIND WELLINGTON_PRES DS824_LAT DS824_LON DS824_STAGE DS824_WIND DS824_PRES TD9636_LAT TD9636_LON TD9636_STAGE TD9636_WIND TD9636_PRES TD9635_LAT TD9635_LON TD9635_WIND TD9635_PRES TD9635_ROCI NEUMANN_LAT NEUMANN_LON NEUMANN_CLASS NEUMANN_WIND NEUMANN_PRES MLC_LAT MLC_LON MLC_CLASS MLC_WIND MLC_PRES USA_GUST BOM_GUST BOM_GUST_PER REUNION_GUST REUNION_GUST_PER USA_SEAHGT USA_SEARAD_NE USA_SEARAD_SE USA_SEARAD_SW USA_SEARAD_NW STORM_SPEED STORM_DIR
1908007S13140 1908 3 SP EA NOT_NAMED 1908-01-06 23:00:00 NR -13.0000 140.000 999 bom main 173 141 ______O___O___ -1 -13.0000 140.000 999 -13.0000 140.000 7 22 106
1908007S13140 1908 3 SP EA NOT_NAMED 1908-01-07 00:00:00 TS -13.0982 140.363 main 130 24 ______P__OP___ -1 -13.1244 140.331 -13.1000 140.300 TC 30 999 -13.0712 140.427 7 22 106
1908007S13140 1908 3 SP EA NOT_NAMED 1908-01-07 03:00:00 TS -13.4104 141.445 main 24 0 ______P__PP___ -1 -13.4939 141.322 -13.4701 141.261 TC -13.2871 141.690 7 22 107
1908007S13140 1908 3 SP EA NOT_NAMED 1908-01-07 06:00:00 TS -13.7268 142.491 main 0 0 ______P__PP___ -1 -13.8537 142.302 -13.8326 142.216 TC -13.5205 142.888 7 21 108
1908007S13140 1908 3 SP EA NOT_NAMED 1908-01-07 09:00:00 TS -14.0574 143.459 main 0 0 ______P__PP___ -1 -14.1993 143.256 -14.1826 143.150 TC -13.7903 143.969 7 20 110
1908007S13140 1908 3 SP EA NOT_NAMED 1908-01-07 11:00:00 TS -14.2755 144.076 main 11 0 ______P__PO___ -1 -14.4195 143.872 -14.4069 143.756 TC -14.0000 144.600 7 19 110
1908007S13140 1908 3 SP EA NOT_NAMED 1908-01-07 12:00:00 TS -14.3859 144.370 main 0 0 ______P__PP___ -1 -14.5262 144.173 -14.5159 144.053 TC -14.1157 144.884 7 18 112
1908007S13140 1908 3 SP EA NOT_NAMED 1908-01-07 15:00:00 TS -14.7179 145.189 main 22 15 ______P__PP___ -1 -14.8302 145.038 -14.8281 144.911 TC -14.4953 145.617 7 16 114
1908007S13140 1908 3 SP EA NOT_NAMED 1908-01-07 18:00:00 TS -15.0391 145.921 main 63 63 ______P__PP___ -1 -15.1074 145.840 -15.1153 145.713 TC -14.8947 146.209 7 15 115
1908007S13140 1908 3 SP EA NOT_NAMED 1908-01-07 21:00:00 TS -15.3345 146.572 main 128 128 ______P__PP___ -1 -15.3541 146.565 -15.3738 146.447 TC -15.2755 146.703 7 13 115
1908007S13140 1908 3 SP EA NOT_NAMED 1908-01-07 23:00:00 TS -15.5095 146.964 999 bom main 173 173 ______O__PO___ -1 -15.5000 147.000 999 -15.5284 146.892 TC -15.5000 147.000 7 12 114
1908007S13140 1908 3 SP EA NOT_NAMED 1908-01-08 00:00:00 TS -15.5860 147.155 main 190 190 ______P__OP___ -1 -15.5670 147.201 -15.6000 147.100 TC 30 999 -15.5910 147.163 7 11 112
1908007S13140 1908 3 SP EA NOT_NAMED 1908-01-08 03:00:00 TS -15.7893 147.673 main 234 234 ______P__PP___ -1 -15.7485 147.746 -15.7930 147.665 TC -15.8265 147.609 7 10 112
1908007S13140 1908 3 SP EA NOT_NAMED 1908-01-08 06:00:00 TS -15.9639 148.121 main 259 259 ______P__PP___ -1 -15.9097 148.211 -15.9620 148.149 TC -16.0201 148.003 7 9 112
1908007S13140 1908 3 SP EA NOT_NAMED 1908-01-08 09:00:00 TS -16.1237 148.514 main 294 294 ______P__PP___ -1 -16.0625 148.609 -16.1184 148.567 TC -16.1903 148.366 7 8 114
1908007S13140 1908 3 SP EA NOT_NAMED 1908-01-08 11:00:00 TS -16.2289 148.753 main 317 312 ______P__PO___ -1 -16.1654 148.845 -16.2212 148.814 TC -16.3000 148.600 7 8 114
1908007S13140 1908 3 SP EA NOT_NAMED 1908-01-08 12:00:00 TS -16.2795 148.870 main 322 322 ______P__PP___ -1 -16.2184 148.956 -16.2734 148.930 TC -16.3468 148.724 7 7 116
1908007S13140 1908 3 SP EA NOT_NAMED 1908-01-08 15:00:00 TS -16.4342 149.200 main 348 344 ______P__PP___ -1 -16.3888 149.263 -16.4381 149.252 TC -16.4757 149.084 7 7 118
1908007S13140 1908 3 SP EA NOT_NAMED 1908-01-08 18:00:00 TS -16.6092 149.508 main 372 372 ______P__PP___ -1 -16.5850 149.546 -16.6235 149.546 TC -16.6190 149.431 7 7 124
1908007S13140 1908 3 SP EA NOT_NAMED 1908-01-08 21:00:00 TS -16.8254 149.805 main 385 377 ______P__PP___ -1 -16.8183 149.818 -16.8405 149.824 TC -16.8173 149.773 7 7 130
1908007S13140 1908 3 SP EA NOT_NAMED 1908-01-08 23:00:00 TS -17.0027 150.002 999 bom main 380 375 ______O__PO___ -1 -17.0000 150.000 999 -17.0081 150.007 TC -17.0000 150.000 7 8 135
1908007S13140 1908 3 SP EA NOT_NAMED 1908-01-09 00:00:00 TS -17.1162 150.109 main 375 355 ______P__OP___ -1 -17.1269 150.107 -17.1000 150.100 TC 30 999 -17.1218 150.120 7 10 141
1908007S13140 1908 3 SP EA NOT_NAMED 1908-01-09 03:00:00 TS -17.5036 150.428 main 355 334 ______P__PP___ -1 -17.5461 150.417 -17.4097 150.385 TC -17.5548 150.482 7 10 144
1908007S13140 1908 3 SP EA NOT_NAMED 1908-01-09 06:00:00 TS -17.9424 150.745 main 334 313 ______P__PP___ -1 -18.0084 150.717 -17.7659 150.680 TC -18.0529 150.840 7 11 146
1908007S13140 1908 3 SP EA NOT_NAMED 1908-01-09 09:00:00 TS -18.4084 151.059 main 321 308 ______P__PP___ -1 -18.4943 151.011 -18.1618 150.984 TC -18.5690 151.183 7 11 148
1908007S13140 1908 3 SP EA NOT_NAMED 1908-01-09 11:00:00 TS -18.7221 151.266 main 317 305 ______P__PO___ -1 -18.8217 151.208 -18.4445 151.191 TC -18.9000 151.400 7 11 148
1908007S13140 1908 3 SP EA NOT_NAMED 1908-01-09 12:00:00 TS -18.8764 151.365 main 314 308 ______P__PP___ -1 -18.9843 151.308 -18.5907 151.295 TC -19.0542 151.493 7 11 149
1908007S13140 1908 3 SP EA NOT_NAMED 1908-01-09 15:00:00 TS -19.3365 151.659 main 322 313 ______P__PP___ -1 -19.4588 151.611 -19.0458 151.614 TC -19.5051 151.753 7 11 148
1908007S13140 1908 3 SP EA NOT_NAMED 1908-01-09 18:00:00 TS -19.7808 151.958 main 320 290 ______P__PP___ -1 -19.8983 151.928 -19.5202 151.939 TC -19.9239 152.007 7 11 147
1908007S13140 1908 3 SP EA NOT_NAMED 1908-01-09 21:00:00 TS -20.2112 152.272 main 296 284 ______P__PP___ -1 -20.2833 152.263 -20.0072 152.268 TC -20.2920 152.285 7 10 144
1908007S13140 1908 3 SP EA NOT_NAMED 1908-01-09 23:00:00 TS -20.4671 152.498 1000 bom main 282 281 ______O__PO___ -1 -20.5000 152.500 1000 -20.3355 152.489 TC -20.5000 152.500 7 10 139
1908007S13140 1908 3 SP EA NOT_NAMED 1908-01-10 00:00:00 TS -20.5862 152.623 main 281 280 ______P__OP___ -1 -20.5943 152.623 -20.5000 152.600 TC 30 1000 -20.5997 152.628 7 9 127
1908007S13140 1908 3 SP EA NOT_NAMED 1908-01-10 03:00:00 NR -20.8384 153.030 main 296 296 ______P___P___ -1 -20.8232 153.009 TC -20.8536 153.050 7 9 118
1908007S13140 1908 3 SP EA NOT_NAMED 1908-01-10 06:00:00 NR -21.0095 153.465 main 325 325 ______P___P___ -1 -20.9790 153.419 TC -21.0399 153.511 7 9 108
1908007S13140 1908 3 SP EA NOT_NAMED 1908-01-10 09:00:00 NR -21.1155 153.918 main 356 356 ______P___P___ -1 -21.0726 153.848 TC -21.1584 153.987 7 9 101
1908007S13140 1908 3 SP EA NOT_NAMED 1908-01-10 11:00:00 NR -21.1528 154.221 main 379 379 ______P___O___ -1 -21.1056 154.143 TC -21.2000 154.300 7 9 96
1908007S13140 1908 3 SP EA NOT_NAMED 1908-01-10 12:00:00 NR -21.1621 154.373 main 398 398 ______P___P___ -1 -21.1145 154.293 TC -21.2097 154.453 7 8 91
1908007S13140 1908 3 SP EA NOT_NAMED 1908-01-10 15:00:00 NR -21.1578 154.822 main 430 430 ______P___P___ -1 -21.1155 154.749 TC -21.2002 154.895 7 8 87
1908007S13140 1908 3 SP EA NOT_NAMED 1908-01-10 18:00:00 NR -21.1160 155.266 main 461 461 ______P___P___ -1 -21.0863 155.215 TC -21.1457 155.318 7 8 83
1908007S13140 1908 3 SP EA NOT_NAMED 1908-01-10 21:00:00 NR -21.0503 155.707 main 481 481 ______P___P___ -1 -21.0378 155.685 TC -21.0629 155.729 7 8 80
1908007S13140 1908 3 SP EA NOT_NAMED 1908-01-10 23:00:00 NR -21.0000 156.000 1000 bom main 506 ______O___O___ -1 -21.0000 156.000 1000 TC -21.0000 156.000 7 8 80

デジタル台風データ・検索

IBTrACS Databaseについて

本データベースは、米国NOAAが公開する1842年以降の世界の熱帯低気圧のベストトラックデータアーカイブInternational Best Track Archive for Climate Stewardship (IBTrACS)を、ウェブで閲覧しやすい形式に変換したものです。

最終更新日:2021-10-08